메인 페이지
METAR-TAF:

METAR-TAF

공항 :

Del Rio International Airport

Del Rio, 텍사스, 미국

위도: 29-22-29N, 경도: 100-55-25W, 고도: 304m

현재 날씨관측

예보는 28분 전, 13:53시(UTC)에 발표되었습니다.
무풍
온도 8°C
습도 71%
기압 1011 hPa
시정: 16.1km
맑음

METAR: KDRT 141353Z AUTO 00000KT 10SM CLR 08/03 A2986 RMK AO2 SLP105 T00780028

시각: 08:21 (14:21 UTC)

예보

예보는 2 시간 49분 전, 11:32시(UTC)에 발표되었습니다.
예보 대상 시간: 14일 12시부터 15일 12시까지 (UTC)
여러 방향의 바람 3kt
시정: 10km
맑음
14일 1800시부터 (UTC)
남남동7kt
시정: 10km
맑음
15일 0100시부터 (UTC)
4kt
시정: 10km
고도 25000ft 상공 구름 조금

TAF: KDRT 141132Z 1412/1512 VRB03KT P6SM SKC FM141800 16007KT P6SM SKC FM150100 10004KT P6SM FEW250

4,000개 이상의 공항 관측 자료 및 예보 (METAR 및 TAF 보고).

지도상에서 검색 가능한 기상관측소가 노란 점과 빨간 점으로 표시되어 있습니다.

기상관측소 명을 보려면 표시 위로 마우스를 이동하세요.

날씨 관측과 예보를 보려면 클릭하세요.

지도 변경 : 확대하려면 엑스 표시가 있는 녹색 버튼, 축소하려면 빼기 표시가 있는 녹색 버튼, 다음 페이지의 지도를 보려면 녹색 화살표를 클릭하세요.


METAR-TAF: